Time;durP1;ratioP1;P1;durP2;ratioP2;P2;SDS_P1;SDS_P2;PMS_P1;PMS_P2;Temp;Humidity;BMP_temperature;BMP_pressure;BME280_temperature;BME280_humidity;BME280_pressure;Samples;Min_cycle;Max_cycle;Signal;HPM_P1;HPM_P2
2021/12/21 00:00:15;;;;;;;4.47;3.20;;;2.40;99.90;;;;;;4972179;28;20198;-73
2021/12/21 00:02:42;;;;;;;6.23;3.80;;;2.30;99.90;;;;;;4966877;28;20255;-73
2021/12/21 00:05:14;;;;;;;5.43;3.47;;;2.40;99.90;;;;;;4970230;28;20194;-71
2021/12/21 00:07:41;;;;;;;3.70;3.40;;;2.30;99.90;;;;;;4965744;28;20201;-71
2021/12/21 00:10:07;;;;;;;7.63;3.83;;;2.40;99.90;;;;;;4971163;28;20212;-70
2021/12/21 00:12:34;;;;;;;7.97;3.80;;;2.40;99.90;;;;;;4969469;28;20248;-70
2021/12/21 00:15:07;;;;;;;3.97;3.40;;;2.40;99.90;;;;;;4968944;28;20225;-71
2021/12/21 00:17:49;;;;;;;6.63;3.47;;;2.40;99.90;;;;;;4970444;28;20554;-70
2021/12/21 00:20:31;;;;;;;5.07;3.70;;;2.30;99.90;;;;;;4971563;28;20300;-71
2021/12/21 00:23:30;;;;;;;5.57;4.37;;;2.40;99.90;;;;;;4967504;28;20205;-70
2021/12/21 00:25:42;;;;;;;4.90;3.70;;;2.50;99.90;;;;;;4968362;28;20205;-70
2021/12/21 00:28:08;;;;;;;3.73;3.30;;;2.40;99.90;;;;;;4968454;28;20185;-69
2021/12/21 00:30:33;;;;;;;4.80;3.60;;;2.30;99.90;;;;;;4969831;28;20194;-71
2021/12/21 00:32:59;;;;;;;6.20;3.63;;;2.20;99.90;;;;;;4968056;28;20192;-69
2021/12/21 00:35:24;;;;;;;5.77;3.60;;;2.30;99.90;;;;;;4967451;28;20675;-70
2021/12/21 00:37:50;;;;;;;5.20;4.70;;;2.20;99.90;;;;;;4968996;28;20189;-71
2021/12/21 00:40:15;;;;;;;6.63;3.40;;;2.20;99.90;;;;;;4968192;28;20233;-70
2021/12/21 00:42:41;;;;;;;15.40;9.43;;;2.20;99.90;;;;;;4967225;28;20855;-68
2021/12/21 00:45:07;;;;;;;5.47;3.77;;;2.20;99.90;;;;;;4970080;28;20197;-68
2021/12/21 00:47:35;;;;;;;4.13;3.00;;;2.20;99.90;;;;;;4964604;28;20201;-69
2021/12/21 00:50:03;;;;;;;5.37;3.37;;;2.20;99.90;;;;;;4968223;28;20221;-69
2021/12/21 00:52:29;;;;;;;4.60;3.40;;;2.20;99.90;;;;;;4962380;28;20220;-71
2021/12/21 00:54:55;;;;;;;5.93;4.43;;;2.20;99.90;;;;;;4970002;28;20206;-68
2021/12/21 00:57:21;;;;;;;8.67;3.73;;;2.20;99.90;;;;;;4967241;28;20567;-67
2021/12/21 00:59:46;;;;;;;3.90;3.27;;;2.40;99.90;;;;;;4968001;28;20806;-69
2021/12/21 01:02:12;;;;;;;7.57;3.70;;;2.70;99.90;;;;;;4971446;28;20752;-69
2021/12/21 01:04:43;;;;;;;8.67;4.07;;;2.90;99.90;;;;;;4986528;28;20220;-69
2021/12/21 01:07:20;;;;;;;6.63;4.23;;;2.80;99.90;;;;;;4974950;28;20284;-70
2021/12/21 01:10:23;;;;;;;8.13;5.53;;;2.70;99.90;;;;;;4986448;28;20195;-69
2021/12/21 01:12:51;;;;;;;4.90;4.20;;;2.60;99.90;;;;;;4976118;28;20205;-70
2021/12/21 01:15:30;;;;;;;5.53;4.03;;;2.40;99.90;;;;;;4947592;28;20193;-69
2021/12/21 01:18:09;;;;;;;6.37;4.43;;;2.40;99.90;;;;;;4956525;28;20204;-83
2021/12/21 01:20:40;;;;;;;9.60;4.07;;;2.50;99.90;;;;;;4969186;28;20628;-73
2021/12/21 01:23:42;;;;;;;7.47;4.40;;;2.50;99.90;;;;;;4975499;28;20212;-69
2021/12/21 01:26:17;;;;;;;7.70;3.80;;;2.40;99.90;;;;;;4961422;28;20189;-73
2021/12/21 01:29:03;;;;;;;10.27;4.43;;;2.40;99.90;;;;;;4974769;28;20203;-69
2021/12/21 01:34:34;;;;;;;7.47;4.73;;;2.40;99.90;;;;;;4955196;28;20229;-70
2021/12/21 01:37:07;;;;;;;6.87;4.17;;;2.40;99.90;;;;;;4954310;28;20287;-71
2021/12/21 01:42:28;;;;;;;6.47;3.20;;;2.60;99.90;;;;;;4964832;28;20215;-81
2021/12/21 01:50:21;;;;;;;7.20;4.07;;;2.50;99.90;;;;;;4964289;28;20614;-71
2021/12/21 01:52:47;;;;;;;12.40;5.43;;;2.50;99.90;;;;;;4984856;28;20192;-73
2021/12/21 01:55:12;;;;;;;7.13;5.13;;;2.40;99.90;;;;;;4970474;28;20204;-78
2021/12/21 01:57:38;;;;;;;7.53;5.63;;;2.50;99.90;;;;;;4966792;28;20934;-67
2021/12/21 02:00:05;;;;;;;9.30;4.67;;;2.50;99.90;;;;;;4969045;28;20575;-73
2021/12/21 02:02:31;;;;;;;10.70;5.33;;;2.20;99.90;;;;;;4985550;28;20202;-78
2021/12/21 02:04:56;;;;;;;7.50;5.23;;;2.00;99.90;;;;;;4978804;28;20216;-70
2021/12/21 02:07:22;;;;;;;8.67;5.93;;;1.90;99.90;;;;;;4972848;28;20988;-69
2021/12/21 02:09:48;;;;;;;7.13;5.87;;;1.90;99.90;;;;;;4964508;28;20224;-69
2021/12/21 02:12:16;;;;;;;7.77;5.10;;;1.80;99.90;;;;;;4981110;28;20222;-68
2021/12/21 02:14:47;;;;;;;10.33;5.40;;;1.80;99.90;;;;;;4975639;28;20263;-69
2021/12/21 02:20:15;;;;;;;9.43;6.33;;;1.80;99.90;;;;;;4972788;28;20270;-69
2021/12/21 02:22:47;;;;;;;9.53;6.13;;;1.80;99.90;;;;;;4977850;28;20191;-69
2021/12/21 02:27:55;;;;;;;6.93;5.77;;;1.80;99.90;;;;;;4987217;28;20286;-80
2021/12/21 02:30:21;;;;;;;11.83;6.67;;;1.80;99.90;;;;;;4968244;28;20252;-68
2021/12/21 02:32:48;;;;;;;10.50;5.97;;;1.80;99.90;;;;;;4988609;28;20197;-74
2021/12/21 02:35:13;;;;;;;12.77;7.90;;;1.80;99.90;;;;;;4968588;28;20214;-66
2021/12/21 02:37:39;;;;;;;13.07;7.20;;;1.80;99.90;;;;;;4982665;28;20200;-82
2021/12/21 02:40:06;;;;;;;9.00;6.47;;;1.80;99.90;;;;;;4965290;28;20820;-68
2021/12/21 02:42:31;;;;;;;9.47;6.63;;;1.80;99.90;;;;;;4983396;28;20232;-76
2021/12/21 02:44:57;;;;;;;16.60;8.80;;;1.90;99.90;;;;;;4972926;28;20625;-69
2021/12/21 02:47:22;;;;;;;14.40;7.53;;;1.90;99.90;;;;;;4983539;28;20612;-68
2021/12/21 02:49:48;;;;;;;14.57;7.83;;;1.90;99.90;;;;;;4976485;28;20311;-69
2021/12/21 02:52:14;;;;;;;13.93;7.33;;;1.90;99.90;;;;;;4977815;28;20200;-69
2021/12/21 02:54:39;;;;;;;7.60;6.70;;;1.90;99.90;;;;;;4983130;28;20243;-76
2021/12/21 02:57:05;;;;;;;9.73;7.60;;;1.90;99.90;;;;;;4975793;28;20690;-71
2021/12/21 02:59:31;;;;;;;9.87;8.00;;;1.90;99.90;;;;;;4980138;28;20196;-71
2021/12/21 03:01:56;;;;;;;8.10;7.00;;;1.90;99.90;;;;;;4981243;28;20619;-65
2021/12/21 03:04:22;;;;;;;8.17;7.17;;;1.90;99.90;;;;;;4969923;28;20223;-67
2021/12/21 03:09:39;;;;;;;10.17;7.03;;;1.90;99.90;;;;;;4968681;28;20190;-66
2021/12/21 03:12:14;;;;;;;9.90;7.10;;;1.90;99.90;;;;;;4968391;28;20630;-65
2021/12/21 03:14:40;;;;;;;7.43;6.10;;;1.90;99.90;;;;;;4968510;28;20559;-66
2021/12/21 03:17:06;;;;;;;10.43;7.63;;;1.90;99.90;;;;;;4967679;28;20634;-67
2021/12/21 03:19:32;;;;;;;12.57;7.43;;;1.90;99.90;;;;;;4973871;28;20185;-67
2021/12/21 03:21:57;;;;;;;14.83;8.90;;;1.90;99.90;;;;;;4970666;28;20211;-67
2021/12/21 03:24:23;;;;;;;12.73;8.23;;;1.90;99.90;;;;;;4971618;28;20213;-67
2021/12/21 03:26:50;;;;;;;10.53;7.93;;;1.80;99.90;;;;;;4970613;28;20664;-66
2021/12/21 03:29:16;;;;;;;12.53;8.83;;;1.80;99.90;;;;;;4971433;28;20204;-66
2021/12/21 03:31:41;;;;;;;10.47;7.90;;;1.80;99.90;;;;;;4971266;28;20205;-67
2021/12/21 03:34:07;;;;;;;11.53;8.53;;;1.90;99.90;;;;;;4967815;28;20213;-68
2021/12/21 03:36:33;;;;;;;11.50;8.33;;;1.90;99.90;;;;;;4969240;28;20680;-67
2021/12/21 03:41:25;;;;;;;12.53;8.57;;;1.90;99.90;;;;;;4970136;28;20188;-66
2021/12/21 03:43:50;;;;;;;13.53;9.03;;;1.90;99.90;;;;;;4969604;28;20388;-67
2021/12/21 03:46:16;;;;;;;12.67;9.00;;;1.90;99.90;;;;;;4969543;28;20220;-67
2021/12/21 03:48:47;;;;;;;13.73;9.43;;;1.90;99.90;;;;;;4968909;28;20205;-67
2021/12/21 03:51:18;;;;;;;13.80;8.77;;;1.90;99.90;;;;;;4971252;28;20189;-67
2021/12/21 03:53:45;;;;;;;16.30;9.03;;;1.90;99.90;;;;;;4969537;28;20632;-64
2021/12/21 03:56:31;;;;;;;13.70;9.30;;;1.80;99.90;;;;;;4970721;28;20237;-63
2021/12/21 03:58:56;;;;;;;16.13;9.33;;;1.80;99.90;;;;;;4970864;28;20197;-65
2021/12/21 04:01:22;;;;;;;10.10;8.53;;;1.80;99.90;;;;;;4970555;28;20235;-65
2021/12/21 04:03:47;;;;;;;11.77;8.57;;;1.80;99.90;;;;;;4959429;28;20229;-67
2021/12/21 04:06:13;;;;;;;11.33;9.27;;;1.80;99.90;;;;;;4969816;28;20220;-68
2021/12/21 04:08:39;;;;;;;16.20;8.60;;;1.80;99.90;;;;;;4961768;28;20205;-68
2021/12/21 04:11:04;;;;;;;11.57;8.70;;;1.80;99.90;;;;;;4964762;28;20669;-68
2021/12/21 04:13:30;;;;;;;12.77;8.77;;;1.80;99.90;;;;;;4969099;28;20714;-68
2021/12/21 04:15:59;;;;;;;15.03;9.37;;;1.80;99.90;;;;;;4963963;28;20573;-65
2021/12/21 04:18:25;;;;;;;11.97;9.77;;;1.80;99.90;;;;;;4965061;28;20656;-65
2021/12/21 04:20:51;;;;;;;13.03;8.87;;;1.80;99.90;;;;;;4970167;28;20236;-64
2021/12/21 04:23:17;;;;;;;15.67;10.00;;;1.80;99.90;;;;;;4970077;28;20288;-65
2021/12/21 04:25:43;;;;;;;15.93;11.23;;;1.80;99.90;;;;;;4969791;28;20588;-66
2021/12/21 04:28:08;;;;;;;14.70;10.57;;;1.80;99.90;;;;;;4967205;28;20715;-68
2021/12/21 04:30:34;;;;;;;15.23;9.57;;;1.80;99.90;;;;;;4966472;28;20940;-68
2021/12/21 04:32:59;;;;;;;15.67;10.07;;;1.80;99.90;;;;;;4967813;28;20188;-68
2021/12/21 04:35:25;;;;;;;20.43;10.57;;;1.80;99.90;;;;;;4968684;28;20292;-62
2021/12/21 04:38:12;;;;;;;15.93;9.83;;;1.80;99.90;;;;;;4966892;28;20189;-63
2021/12/21 04:40:45;;;;;;;20.23;11.87;;;1.90;99.90;;;;;;4964834;28;20308;-63
2021/12/21 04:43:11;;;;;;;15.00;10.87;;;1.80;99.90;;;;;;4968571;28;20263;-64
2021/12/21 04:45:37;;;;;;;20.43;10.53;;;1.80;99.90;;;;;;4965052;28;20185;-65
2021/12/21 04:48:02;;;;;;;15.80;11.17;;;1.70;99.90;;;;;;4964320;28;20238;-62
2021/12/21 04:50:28;;;;;;;19.73;11.57;;;1.80;99.90;;;;;;4967575;28;20201;-63
2021/12/21 04:52:54;;;;;;;19.93;11.90;;;1.70;99.90;;;;;;4967886;28;20192;-63
2021/12/21 04:55:19;;;;;;;17.07;11.60;;;1.80;99.90;;;;;;4970056;28;20570;-66
2021/12/21 04:57:45;;;;;;;16.80;11.20;;;1.70;99.90;;;;;;4967404;28;20401;-63
2021/12/21 05:00:12;;;;;;;14.63;10.70;;;1.80;99.90;;;;;;4968509;28;20204;-64
2021/12/21 05:02:38;;;;;;;16.27;9.50;;;1.80;99.90;;;;;;4966233;28;20216;-63
2021/12/21 05:05:04;;;;;;;17.30;10.97;;;1.80;99.90;;;;;;4968030;28;20217;-63
2021/12/21 05:07:32;;;;;;;16.47;10.23;;;1.80;99.90;;;;;;4965355;28;20400;-64
2021/12/21 05:10:00;;;;;;;13.40;9.67;;;1.80;99.90;;;;;;4968592;28;20214;-62
2021/12/21 05:12:29;;;;;;;17.13;11.03;;;1.80;99.90;;;;;;4965778;28;20213;-63
2021/12/21 05:14:55;;;;;;;17.33;11.70;;;1.70;99.90;;;;;;4968020;28;20224;-62
2021/12/21 05:17:21;;;;;;;18.27;11.83;;;1.70;99.90;;;;;;4966438;28;20214;-64
2021/12/21 05:19:47;;;;;;;15.67;11.97;;;1.70;99.90;;;;;;4967951;28;20201;-62
2021/12/21 05:22:15;;;;;;;18.07;11.90;;;1.70;99.90;;;;;;4965835;28;20588;-66
2021/12/21 05:24:40;;;;;;;16.43;10.93;;;1.70;99.90;;;;;;4970235;28;20590;-64
2021/12/21 05:27:06;;;;;;;18.23;11.70;;;1.80;99.90;;;;;;4968356;28;20243;-64
2021/12/21 05:29:32;;;;;;;18.07;12.27;;;1.80;99.90;;;;;;4965025;28;20217;-64
2021/12/21 05:32:01;;;;;;;18.80;12.60;;;1.80;99.90;;;;;;4968635;28;20225;-63
2021/12/21 05:34:28;;;;;;;15.63;11.37;;;1.80;99.90;;;;;;4967523;28;20492;-63
2021/12/21 05:36:54;;;;;;;17.63;12.00;;;1.80;99.90;;;;;;4966359;28;20248;-64
2021/12/21 05:39:24;;;;;;;15.63;10.90;;;1.80;99.90;;;;;;4969559;28;20232;-63
2021/12/21 05:41:53;;;;;;;15.43;11.37;;;1.80;99.90;;;;;;4966614;28;20744;-64
2021/12/21 05:44:21;;;;;;;16.73;10.20;;;1.80;99.90;;;;;;4967456;28;20664;-64
2021/12/21 05:46:48;;;;;;;21.07;12.10;;;1.80;99.90;;;;;;4967000;28;20276;-64
2021/12/21 05:49:14;;;;;;;21.87;12.60;;;1.90;99.90;;;;;;4963698;28;20215;-64
2021/12/21 05:51:39;;;;;;;17.10;11.13;;;1.90;99.90;;;;;;4969165;28;20240;-63
2021/12/21 05:54:05;;;;;;;19.90;12.33;;;1.80;99.90;;;;;;4969776;28;20671;-63
2021/12/21 05:56:31;;;;;;;15.60;11.00;;;1.80;99.90;;;;;;4964700;28;20264;-63
2021/12/21 05:58:57;;;;;;;16.73;12.03;;;1.90;99.90;;;;;;4967059;28;20332;-65
2021/12/21 06:01:23;;;;;;;18.70;12.80;;;1.90;99.90;;;;;;4967941;28;20662;-63
2021/12/21 06:03:49;;;;;;;22.03;11.80;;;1.90;99.90;;;;;;4966796;28;20213;-64
2021/12/21 06:06:16;;;;;;;17.43;12.00;;;1.90;99.90;;;;;;4964913;28;20197;-63
2021/12/21 06:08:44;;;;;;;19.20;12.17;;;1.90;99.90;;;;;;4971922;28;20201;-64
2021/12/21 06:11:10;;;;;;;18.80;12.30;;;1.90;99.90;;;;;;4966012;28;20652;-62
2021/12/21 06:22:43;;;;;;;24.17;13.40;;;1.90;99.90;;;;;;4966601;28;20250;-63
2021/12/21 06:27:23;;;;;;;16.17;11.47;;;2.00;99.90;;;;;;4966646;28;20238;-63
2021/12/21 06:29:49;;;;;;;19.73;11.83;;;2.00;99.90;;;;;;4965202;28;20189;-63
2021/12/21 06:32:14;;;;;;;23.23;12.80;;;2.00;99.90;;;;;;4967013;28;20193;-63
2021/12/21 06:34:40;;;;;;;19.83;12.23;;;2.00;99.90;;;;;;4967898;28;20201;-64
2021/12/21 06:37:07;;;;;;;15.40;11.40;;;2.00;99.90;;;;;;4966629;28;20281;-63
2021/12/21 06:39:33;;;;;;;21.80;12.53;;;2.00;99.90;;;;;;4964430;28;20221;-64
2021/12/21 06:41:59;;;;;;;18.23;12.43;;;2.00;99.90;;;;;;4968712;28;20260;-64
2021/12/21 06:44:25;;;;;;;19.10;12.43;;;2.00;99.90;;;;;;4971178;28;20936;-65
2021/12/21 06:52:04;;;;;;;18.03;12.07;;;2.00;99.90;;;;;;4965137;28;20188;-63
2021/12/21 06:54:30;;;;;;;23.27;13.27;;;2.00;99.90;;;;;;4964666;28;20272;-64
2021/12/21 06:56:56;;;;;;;18.80;12.27;;;2.00;99.90;;;;;;4967345;28;20624;-64
2021/12/21 06:59:21;;;;;;;21.70;12.53;;;2.00;99.90;;;;;;4967540;28;20208;-63
2021/12/21 07:01:48;;;;;;;18.60;11.07;;;1.90;99.90;;;;;;4965709;28;20190;-64
2021/12/21 07:04:17;;;;;;;18.63;12.23;;;1.90;99.90;;;;;;4966395;28;20222;-65
2021/12/21 07:06:45;;;;;;;19.27;12.73;;;2.00;99.90;;;;;;4970408;28;20185;-64
2021/12/21 07:11:53;;;;;;;19.90;13.47;;;1.90;99.90;;;;;;4969848;28;20192;-64
2021/12/21 07:19:47;;;;;;;24.50;12.80;;;2.00;99.90;;;;;;4969609;28;20248;-63
2021/12/21 07:22:12;;;;;;;22.77;13.30;;;2.00;99.90;;;;;;4970305;28;20229;-64
2021/12/21 07:24:38;;;;;;;21.07;13.27;;;2.00;99.90;;;;;;4973830;28;20287;-63
2021/12/21 07:27:04;;;;;;;15.33;11.23;;;2.00;99.90;;;;;;4973417;28;20320;-64
2021/12/21 07:29:29;;;;;;;24.13;13.20;;;2.00;99.90;;;;;;4967193;28;20493;-63
2021/12/21 07:31:56;;;;;;;15.97;11.10;;;2.00;99.90;;;;;;4970023;28;20652;-63
2021/12/21 07:34:21;;;;;;;20.03;10.87;;;2.00;99.90;;;;;;4972439;28;20251;-63
2021/12/21 07:36:47;;;;;;;18.87;11.63;;;2.00;99.90;;;;;;4969184;28;20201;-63
2021/12/21 07:39:17;;;;;;;18.77;10.70;;;1.90;99.90;;;;;;4969164;28;20695;-64
2021/12/21 07:41:43;;;;;;;15.03;10.90;;;1.90;99.90;;;;;;4967502;28;20931;-64
2021/12/21 07:44:09;;;;;;;17.87;11.80;;;1.90;99.90;;;;;;4970315;28;20256;-62
2021/12/21 07:46:35;;;;;;;19.03;11.03;;;1.90;99.90;;;;;;4967905;28;20197;-64
2021/12/21 07:49:02;;;;;;;17.90;11.37;;;1.90;99.90;;;;;;4970748;28;20186;-64
2021/12/21 07:51:31;;;;;;;18.07;10.80;;;1.90;99.90;;;;;;4968284;28;20216;-64
2021/12/21 07:53:56;;;;;;;15.40;11.37;;;1.90;99.90;;;;;;4968066;28;20204;-63
2021/12/21 07:56:22;;;;;;;20.80;11.30;;;2.00;99.90;;;;;;4968141;28;20197;-64
2021/12/21 07:58:48;;;;;;;21.83;12.80;;;2.00;99.90;;;;;;4970525;28;20197;-74
2021/12/21 08:01:14;;;;;;;19.73;10.77;;;2.00;99.90;;;;;;4967830;28;20202;-63
2021/12/21 08:03:39;;;;;;;15.57;10.23;;;2.00;99.90;;;;;;4986971;28;20225;-63
2021/12/21 08:06:07;;;;;;;14.57;9.30;;;2.00;99.90;;;;;;4972096;28;20209;-63
2021/12/21 08:08:35;;;;;;;27.33;12.73;;;2.00;99.90;;;;;;4987701;28;20212;-62
2021/12/21 08:13:47;;;;;;;15.13;9.73;;;2.10;99.90;;;;;;4987701;28;20210;-62
2021/12/21 08:16:13;;;;;;;18.50;10.00;;;2.10;99.90;;;;;;4975508;28;20212;-64
2021/12/21 08:18:39;;;;;;;16.23;10.83;;;2.10;99.90;;;;;;4987515;28;20200;-63
2021/12/21 08:21:05;;;;;;;20.07;10.30;;;2.00;99.90;;;;;;4971102;28;20216;-64
2021/12/21 08:23:30;;;;;;;11.43;9.23;;;2.10;99.90;;;;;;4986262;28;20209;-64
2021/12/21 08:25:56;;;;;;;12.30;8.67;;;2.10;99.90;;;;;;4973810;28;20209;-62
2021/12/21 08:28:22;;;;;;;12.47;8.77;;;2.00;99.90;;;;;;4986805;28;20677;-63
2021/12/21 08:30:48;;;;;;;14.27;8.13;;;2.00;99.90;;;;;;4976818;28;20213;-63
2021/12/21 08:33:14;;;;;;;12.90;8.93;;;2.00;99.90;;;;;;4986946;28;20235;-63
2021/12/21 08:35:40;;;;;;;13.20;9.63;;;2.00;99.90;;;;;;4979253;28;20356;-62
2021/12/21 08:38:09;;;;;;;15.13;9.23;;;2.00;99.90;;;;;;4986693;28;20291;-64
2021/12/21 08:40:40;;;;;;;15.70;9.80;;;2.00;99.90;;;;;;4975215;28;20384;-63
2021/12/21 08:43:28;;;;;;;15.27;9.20;;;1.90;99.90;;;;;;4958905;28;20208;-62
2021/12/21 08:45:56;;;;;;;14.87;9.83;;;1.90;99.90;;;;;;4964409;28;20229;-63
2021/12/21 08:48:22;;;;;;;22.17;11.17;;;1.90;99.90;;;;;;4986853;28;20283;-64
2021/12/21 08:50:50;;;;;;;14.97;9.13;;;1.90;99.90;;;;;;4971864;28;20209;-63
2021/12/21 08:53:17;;;;;;;13.93;8.77;;;1.90;99.90;;;;;;4978739;28;20490;-63
2021/12/21 08:55:43;;;;;;;15.43;10.40;;;2.00;99.90;;;;;;4974741;28;20206;-68
2021/12/21 08:58:10;;;;;;;15.70;9.80;;;2.00;99.90;;;;;;4986974;28;20559;-64
2021/12/21 09:00:37;;;;;;;14.37;10.13;;;2.00;99.90;;;;;;4973820;28;20213;-65
2021/12/21 09:03:04;;;;;;;17.43;10.00;;;2.00;99.90;;;;;;4970959;28;20193;-63
2021/12/21 09:05:31;;;;;;;15.10;9.13;;;2.10;99.90;;;;;;4965968;28;20249;-63
2021/12/21 09:07:57;;;;;;;20.50;11.23;;;2.20;99.90;;;;;;4971260;28;20268;-63
2021/12/21 09:10:24;;;;;;;15.37;10.33;;;2.20;99.90;;;;;;4967856;28;20208;-63
2021/12/21 09:12:50;;;;;;;16.87;11.33;;;2.20;99.90;;;;;;4967557;28;20216;-63
2021/12/21 09:15:17;;;;;;;15.47;10.83;;;2.10;99.90;;;;;;4967193;28;21299;-63
2021/12/21 09:17:44;;;;;;;17.33;10.67;;;2.20;99.90;;;;;;4968535;28;20652;-63
2021/12/21 09:20:13;;;;;;;16.50;10.90;;;2.10;99.90;;;;;;4966162;28;20205;-62
2021/12/21 09:22:40;;;;;;;18.30;11.13;;;2.00;99.90;;;;;;4968111;28;20664;-63
2021/12/21 09:25:07;;;;;;;20.43;11.70;;;2.00;99.90;;;;;;4967702;28;20450;-63
2021/12/21 09:27:32;;;;;;;15.67;9.17;;;2.00;99.90;;;;;;4966864;28;20277;-63
2021/12/21 09:29:58;;;;;;;17.27;12.03;;;2.00;99.90;;;;;;4966062;28;20756;-63
2021/12/21 09:32:24;;;;;;;16.10;9.60;;;2.10;99.90;;;;;;4967031;28;20583;-62
2021/12/21 09:34:50;;;;;;;14.93;10.43;;;2.10;99.90;;;;;;4965833;28;20231;-62
2021/12/21 09:37:18;;;;;;;15.73;10.83;;;2.20;99.90;;;;;;4966922;28;20185;-64
2021/12/21 09:39:46;;;;;;;14.83;10.73;;;2.30;99.90;;;;;;4965750;28;20233;-62
2021/12/21 09:42:16;;;;;;;17.97;11.03;;;2.40;99.90;;;;;;4967547;28;20236;-63
2021/12/21 09:44:42;;;;;;;17.13;11.73;;;2.40;99.90;;;;;;4967612;28;20266;-63
2021/12/21 09:47:10;;;;;;;16.40;11.20;;;2.30;99.90;;;;;;4967136;28;20652;-63
2021/12/21 09:49:37;;;;;;;16.77;10.97;;;2.30;99.90;;;;;;4964202;28;20262;-62
2021/12/21 09:52:04;;;;;;;15.10;10.30;;;2.40;99.90;;;;;;4965469;28;20177;-62
2021/12/21 09:54:33;;;;;;;19.27;12.83;;;2.40;99.90;;;;;;4963921;28;20590;-63
2021/12/21 09:56:58;;;;;;;15.70;9.60;;;2.40;99.90;;;;;;4967988;28;20246;-62
2021/12/21 09:59:25;;;;;;;17.17;11.30;;;2.50;99.90;;;;;;4967108;28;20672;-61
2021/12/21 10:01:50;;;;;;;14.33;10.47;;;2.50;99.90;;;;;;4966226;28;20231;-68
2021/12/21 10:04:17;;;;;;;11.67;9.37;;;2.50;99.90;;;;;;4966190;28;20213;-68
2021/12/21 10:06:50;;;;;;;15.70;10.23;;;2.50;99.90;;;;;;4965847;28;20185;-68
2021/12/21 10:09:20;;;;;;;16.23;11.33;;;2.50;99.90;;;;;;4979506;28;20332;-68
2021/12/21 10:11:48;;;;;;;12.33;9.03;;;2.50;99.90;;;;;;4967959;28;20881;-63
2021/12/21 10:14:15;;;;;;;13.63;9.40;;;2.40;99.90;;;;;;4967652;28;20255;-63
2021/12/21 10:16:42;;;;;;;15.30;10.70;;;2.40;99.90;;;;;;4968457;28;20197;-62
2021/12/21 10:19:07;;;;;;;14.50;9.23;;;2.30;99.90;;;;;;4971850;28;20199;-62
2021/12/21 10:21:44;;;;;;;15.70;10.87;;;2.20;99.90;;;;;;4966736;28;20242;-61
2021/12/21 10:24:20;;;;;;;12.77;9.33;;;2.20;99.90;;;;;;4966771;28;20360;-62
2021/12/21 10:26:46;;;;;;;14.13;9.10;;;2.20;99.90;;;;;;4965746;28;20191;-62
2021/12/21 10:29:15;;;;;;;16.43;9.70;;;2.10;99.90;;;;;;4967980;28;20193;-65
2021/12/21 10:31:42;;;;;;;18.73;11.53;;;2.10;99.90;;;;;;4968676;28;20185;-62
2021/12/21 10:34:18;;;;;;;16.73;9.73;;;2.20;99.90;;;;;;4969431;28;20659;-62
2021/12/21 10:36:50;;;;;;;15.60;10.47;;;2.10;99.90;;;;;;4966697;28;20205;-64
2021/12/21 10:39:26;;;;;;;14.40;9.33;;;2.10;99.90;;;;;;4971357;28;20342;-62
2021/12/21 10:41:58;;;;;;;15.87;8.80;;;2.10;99.90;;;;;;4968711;28;20192;-64
2021/12/21 10:44:24;;;;;;;14.43;10.07;;;2.10;99.90;;;;;;4970542;28;20201;-64
2021/12/21 10:46:53;;;;;;;13.37;9.00;;;2.00;99.90;;;;;;4972033;28;20518;-62
2021/12/21 10:49:21;;;;;;;14.60;9.47;;;2.00;99.90;;;;;;4968150;28;20652;-62
2021/12/21 10:51:51;;;;;;;16.37;10.10;;;2.10;99.90;;;;;;4970619;28;20281;-63
2021/12/21 10:54:35;;;;;;;22.37;11.50;;;2.10;99.90;;;;;;4969291;28;20625;-64
2021/12/21 10:57:10;;;;;;;12.73;9.90;;;2.30;99.90;;;;;;4970279;28;20201;-62
2021/12/21 10:59:45;;;;;;;14.30;10.27;;;2.30;99.90;;;;;;4970124;28;20208;-68
2021/12/21 11:02:22;;;;;;;15.40;10.80;;;2.40;99.90;;;;;;4969274;28;20181;-64
2021/12/21 11:04:54;;;;;;;15.87;9.73;;;2.40;99.90;;;;;;4967534;28;20267;-63
2021/12/21 11:07:33;;;;;;;15.90;10.13;;;2.40;99.90;;;;;;4968778;28;20640;-63
2021/12/21 11:10:12;;;;;;;13.77;8.83;;;2.40;99.90;;;;;;4967084;28;20292;-63
2021/12/21 11:12:56;;;;;;;11.37;7.57;;;2.40;99.90;;;;;;4975918;28;20181;-63
2021/12/21 11:15:28;;;;;;;13.60;8.53;;;2.50;99.90;;;;;;4977263;28;20204;-65
2021/12/21 11:18:21;;;;;;;13.93;7.87;;;2.50;99.90;;;;;;4958351;28;20282;-63
2021/12/21 11:20:50;;;;;;;12.47;7.37;;;2.40;99.90;;;;;;4966329;28;20247;-63
2021/12/21 11:23:18;;;;;;;12.60;8.63;;;2.20;99.90;;;;;;4984988;28;20204;-62
2021/12/21 11:25:48;;;;;;;11.73;8.00;;;2.00;99.90;;;;;;4973851;28;20205;-62
2021/12/21 11:28:19;;;;;;;15.07;8.53;;;1.90;99.90;;;;;;4983692;28;20197;-62
2021/12/21 11:30:45;;;;;;;13.10;9.73;;;1.90;99.90;;;;;;4960295;28;20197;-63
2021/12/21 11:33:13;;;;;;;15.47;8.73;;;1.80;99.90;;;;;;4984546;28;20220;-61
2021/12/21 11:38:08;;;;;;;15.90;10.60;;;1.80;99.90;;;;;;4985327;28;20200;-68
2021/12/21 11:40:38;;;;;;;14.80;9.73;;;1.90;99.90;;;;;;4983587;28;20908;-68
2021/12/21 11:43:20;;;;;;;13.90;9.57;;;2.00;99.90;;;;;;4953737;28;20190;-69
2021/12/21 11:45:59;;;;;;;15.73;10.73;;;2.10;99.90;;;;;;4966160;28;20560;-70
2021/12/21 11:48:38;;;;;;;15.67;11.23;;;2.20;99.90;;;;;;4968557;28;20286;-69
2021/12/21 11:51:09;;;;;;;20.73;12.57;;;2.20;99.90;;;;;;4965917;28;20201;-70
2021/12/21 11:53:36;;;;;;;17.17;12.13;;;2.10;99.90;;;;;;4970889;28;20202;-69
2021/12/21 11:56:03;;;;;;;18.53;11.67;;;2.00;99.90;;;;;;4968739;28;20199;-69
2021/12/21 11:58:39;;;;;;;17.30;11.27;;;1.90;99.90;;;;;;4969908;28;20276;-69
2021/12/21 12:01:13;;;;;;;18.93;13.43;;;1.90;99.90;;;;;;4971486;28;20643;-63
2021/12/21 12:03:44;;;;;;;15.93;12.17;;;1.80;99.90;;;;;;4958214;28;20913;-64
2021/12/21 12:06:15;;;;;;;16.10;11.67;;;1.70;99.90;;;;;;4967237;28;20208;-63
2021/12/21 12:08:50;;;;;;;17.10;10.60;;;1.70;99.90;;;;;;4969456;28;20196;-63
2021/12/21 12:11:37;;;;;;;14.93;9.53;;;1.80;99.90;;;;;;4967822;28;20239;-64
2021/12/21 12:14:10;;;;;;;15.30;9.17;;;1.90;99.90;;;;;;4969281;28;20186;-64
2021/12/21 12:16:49;;;;;;;14.43;9.40;;;2.00;99.90;;;;;;4968045;28;20217;-64
2021/12/21 12:19:27;;;;;;;13.57;10.37;;;2.00;99.90;;;;;;4969668;28;20196;-64
2021/12/21 12:22:01;;;;;;;14.70;10.80;;;2.00;99.90;;;;;;4982292;28;20188;-65
2021/12/21 12:24:34;;;;;;;12.50;9.80;;;2.10;99.90;;;;;;4969315;28;20212;-64
2021/12/21 12:27:07;;;;;;;17.27;10.20;;;2.10;99.90;;;;;;4976190;28;20185;-63
2021/12/21 12:29:44;;;;;;;15.37;9.20;;;2.10;99.90;;;;;;4979507;28;20211;-62
2021/12/21 12:32:11;;;;;;;17.70;10.90;;;2.20;99.90;;;;;;4975391;28;20185;-64
2021/12/21 12:34:39;;;;;;;14.93;10.33;;;2.20;99.90;;;;;;4985220;28;20203;-62
2021/12/21 12:37:18;;;;;;;15.23;10.70;;;2.20;99.90;;;;;;4973509;28;20201;-63
2021/12/21 12:39:46;;;;;;;13.60;9.77;;;2.20;99.90;;;;;;4980636;28;20287;-63
2021/12/21 12:42:16;;;;;;;13.50;10.77;;;2.20;99.90;;;;;;4986795;28;20196;-62
2021/12/21 12:44:45;;;;;;;14.87;11.30;;;2.30;99.90;;;;;;4970909;28;20264;-62
2021/12/21 12:47:13;;;;;;;19.40;11.43;;;2.20;99.90;;;;;;4973898;28;20189;-62
2021/12/21 12:49:52;;;;;;;13.77;9.60;;;2.10;99.90;;;;;;4984683;28;20674;-62
2021/12/21 12:52:24;;;;;;;12.83;9.13;;;2.10;99.90;;;;;;4971664;28;20264;-63
2021/12/21 12:54:55;;;;;;;14.53;9.53;;;2.10;99.90;;;;;;4977602;28;20222;-62
2021/12/21 12:57:31;;;;;;;14.13;10.43;;;2.10;99.90;;;;;;4988893;28;20177;-63
2021/12/21 13:00:09;;;;;;;18.10;11.03;;;2.10;99.90;;;;;;4979001;28;20217;-63
2021/12/21 13:02:35;;;;;;;16.20;10.97;;;2.10;99.90;;;;;;4979670;28;20203;-66
2021/12/21 13:05:08;;;;;;;17.33;10.43;;;2.10;99.90;;;;;;4984297;28;20561;-63
2021/12/21 13:07:35;;;;;;;13.23;10.17;;;2.10;99.90;;;;;;4971128;28;20190;-64
2021/12/21 13:10:09;;;;;;;12.90;8.67;;;2.20;99.90;;;;;;4983431;28;20219;-64
2021/12/21 13:12:35;;;;;;;13.50;9.20;;;2.20;99.90;;;;;;4967393;28;20196;-64
2021/12/21 13:15:01;;;;;;;11.50;8.67;;;2.20;99.90;;;;;;4977435;28;20414;-63
2021/12/21 13:17:27;;;;;;;12.83;9.00;;;2.10;99.90;;;;;;4979012;28;20275;-63
2021/12/21 13:19:52;;;;;;;13.47;8.10;;;1.90;99.90;;;;;;4978936;28;20208;-64
2021/12/21 13:22:26;;;;;;;13.13;9.17;;;1.80;99.90;;;;;;4985656;28;20565;-64
2021/12/21 13:24:52;;;;;;;16.00;9.60;;;1.70;99.90;;;;;;4963781;28;20214;-62
2021/12/21 13:27:27;;;;;;;13.07;8.40;;;1.70;99.90;;;;;;4986355;28;20188;-64
2021/12/21 13:29:53;;;;;;;15.57;9.30;;;1.60;99.90;;;;;;4972131;28;20208;-64
2021/12/21 13:32:21;;;;;;;12.03;8.17;;;1.60;99.90;;;;;;4978516;28;20200;-64
2021/12/21 13:34:52;;;;;;;15.83;9.37;;;1.70;99.90;;;;;;4979711;28;20260;-64
2021/12/21 13:37:19;;;;;;;13.80;8.63;;;1.60;99.90;;;;;;4982372;28;20198;-64
2021/12/21 13:39:47;;;;;;;11.33;9.93;;;1.70;99.90;;;;;;4977830;28;20229;-64
2021/12/21 13:42:18;;;;;;;14.20;8.63;;;1.60;99.90;;;;;;4983029;28;20195;-61